Aeroporto :
LOGIN :

Iscrizione | Disclaimer

   EN    FR    IT 

 










Sommario :    VFR   VFR Marginale   IFR   IFR Intensivo   IFR Molto Intensivo
Visibilità : 
Base nubi : 
>= 8 km
>= 3000ft
5 / 8 km
1000 / 3000 ft
1500m / 5 km
500 / 1000 ft
800 / 1500m
200 / 500 ft
< 800m
< 200 ft
Simboli :   Temporali  Nebbia  Neve Forte  Precipitazioni Forti  Vento > 20 kt
SIGMETs :   Varie  Temporali  Ghiacco  Turbolenza  Onda orograficha  Ceneri Vulcaniche







- Altitudine del aeroporto : 1345 ft
- Codice IATA : FRZ


ETHF - Fritzlar

ULTIMO METAR :
  • 162020Z VRB01KT 0100 FG VV001 09/09 Q1020 RED

METARs OBSOLETI :
  • 161920Z 29003KT 0100 FG FEW140 11/11 Q1020 RED
  • 161845Z 32003KT 0100 FG FEW140 13/13 Q1020 RED FCST CANCEL
  • 161820Z 31005KT 0100 R30/0400N FG FEW001 SCT140 13/13 Q1020 RED RED

TAF AMD TAF ETHF
Valido dal 16 a 14 ore il 16 a 23 ore UTC


161832Z 1614/1623 VRB03KT 9999 NSW SCT080 BKN120
BECMG 1615/1617 VRB01KT 0200 FG FEW080 SCT120 CANCEL 1845
Nessun NOTAM noto per questo aeroporto.



MetMap, La meteo Aeronautica in un colpo d'occhio ! - Copyright ORBIFLY Dicembre 2007 - Disclaimer

ORBIFLY MET'MAP TEAM :

Programmazione e sviluppo : Alexandra Zaïnal
Concezione e sviluppo : Baudouin d'Aumeries
Co-Programmazione e sviluppo : Marc-Olivier Méhu
Supporto tecnico e logistico : Manuel Goepfert
Aiuto per la traduzione : Arnaldo La Scala

Contatto : metmap@orbifly.com




FONTI E CREDITI :

   NOAA